Time;durP1;ratioP1;P1;durP2;ratioP2;P2;SDS_P1;SDS_P2;PMS_P1;PMS_P2;Temp;Humidity;BMP_temperature;BMP_pressure;BME280_temperature;BME280_humidity;BME280_pressure;Samples;Min_cycle;Max_cycle;Signal;HPM_P1;HPM_P2
2022/05/16 00:01:41;;;;;;;4.90;3.10;;;;;;;12.69;50.84;100761.52;106008;1276;24256;-78
2022/05/16 00:04:07;;;;;;;7.00;3.10;;;;;;;12.66;51.13;100761.73;105960;1276;24250;-79
2022/05/16 00:06:34;;;;;;;6.10;3.40;;;;;;;12.66;51.18;100762.78;105684;1278;25423;-74
2022/05/16 00:09:00;;;;;;;6.30;2.80;;;;;;;12.67;51.20;100763.48;105868;1278;22572;-78
2022/05/16 00:11:26;;;;;;;5.80;3.10;;;;;;;12.59;51.23;100764.46;105954;1276;24267;-77
2022/05/16 00:13:53;;;;;;;8.00;3.10;;;;;;;12.59;51.37;100762.87;105835;1277;24279;-74
2022/05/16 00:16:19;;;;;;;4.20;2.80;;;;;;;12.59;51.43;100765.17;105802;1278;22570;-80
2022/05/16 00:23:37;;;;;;;4.10;2.40;;;;;;;12.53;51.67;100769.28;106053;1276;24232;-76
2022/05/16 00:29:53;;;;;;;10.40;3.20;;;;;;;12.50;51.81;100777.09;106015;1277;25309;-77
2022/05/16 00:32:20;;;;;;;4.10;2.50;;;;;;;12.46;51.77;100775.04;105819;1276;24262;-76
2022/05/16 00:34:47;;;;;;;6.90;2.90;;;;;;;12.42;51.87;100779.14;105993;1276;22569;-76
2022/05/16 00:37:17;;;;;;;4.30;2.80;;;;;;;12.40;51.94;100776.33;105923;1274;22541;-73
2022/05/16 00:39:44;;;;;;;5.40;2.90;;;;;;;12.36;52.01;100777.06;106120;1274;24274;-75
2022/05/16 00:42:13;;;;;;;7.70;3.10;;;;;;;12.28;52.15;100777.67;106173;1273;24083;-78
2022/05/16 00:44:39;;;;;;;6.70;3.00;;;;;;;12.21;52.28;100784.11;106240;1274;22979;-76
2022/05/16 00:47:06;;;;;;;5.10;2.80;;;;;;;12.17;52.45;100787.14;106269;1271;22532;-79
2022/05/16 00:49:37;;;;;;;5.60;3.00;;;;;;;12.16;52.55;100790.86;106374;1270;22616;-73
2022/05/16 00:52:24;;;;;;;4.60;2.50;;;;;;;12.14;52.75;100788.74;106235;1270;22528;-77
2022/05/16 00:54:54;;;;;;;5.70;2.70;;;;;;;12.14;52.78;100790.87;106304;1270;23996;-76
2022/05/16 00:57:54;;;;;;;8.30;3.60;;;;;;;12.13;52.86;100793.35;106472;1270;22530;-81
2022/05/16 01:00:28;;;;;;;5.10;2.60;;;;;;;12.11;52.98;100798.84;106471;1271;22531;-79
2022/05/16 01:05:43;;;;;;;4.30;2.80;;;;;;;12.06;53.21;100791.98;106480;1270;24801;-79
2022/05/16 01:08:24;;;;;;;4.60;2.70;;;;;;;12.02;53.33;100792.19;106385;1271;24186;-81
2022/05/16 01:10:55;;;;;;;6.60;2.60;;;;;;;12.01;53.47;100798.19;106328;1270;22637;-80
2022/05/16 01:13:27;;;;;;;4.90;3.00;;;;;;;11.99;53.45;100798.56;106107;1271;23319;-78
2022/05/16 01:15:54;;;;;;;3.60;2.50;;;;;;;11.97;53.67;100803.16;106251;1271;24257;-74
2022/05/16 01:19:11;;;;;;;8.00;2.90;;;;;;;11.95;53.71;100801.41;106339;1270;22551;-72
2022/05/16 01:21:40;;;;;;;3.40;2.60;;;;;;;11.89;53.83;100802.88;106197;1276;23206;-73
2022/05/16 01:24:09;;;;;;;4.70;2.50;;;;;;;11.86;53.97;100806.61;105936;1276;25310;-75
2022/05/16 01:26:38;;;;;;;5.00;2.70;;;;;;;11.83;54.02;100802.04;105856;1276;22499;-75
2022/05/16 01:29:06;;;;;;;5.50;3.10;;;;;;;11.79;54.13;100802.41;105937;1276;23424;-76
2022/05/16 01:31:57;;;;;;;2.80;2.30;;;;;;;11.76;54.22;100807.04;105974;1276;24223;-76
2022/05/16 01:34:23;;;;;;;4.20;2.50;;;;;;;11.74;54.34;100809.52;106438;1276;22609;-74
2022/05/16 01:40:26;;;;;;;4.20;2.20;;;;;;;11.64;54.41;100811.35;107123;1271;22508;-75
2022/05/16 01:42:53;;;;;;;5.90;2.70;;;;;;;11.61;54.51;100814.73;106799;1273;22543;-75
2022/05/16 01:45:23;;;;;;;6.90;2.60;;;;;;;11.59;54.47;100813.86;106530;1271;23937;-78
2022/05/16 01:47:50;;;;;;;3.40;2.30;;;;;;;11.52;54.53;100811.08;106402;1271;22537;-77
2022/05/16 01:50:17;;;;;;;4.80;2.60;;;;;;;11.48;54.70;100815.15;107581;1271;25358;-78
2022/05/16 01:53:09;;;;;;;5.70;2.20;;;;;;;11.47;54.74;100810.22;106244;1271;24362;-78
2022/05/16 01:56:06;;;;;;;4.20;2.30;;;;;;;11.47;54.81;100809.51;106312;1271;24418;-79
2022/05/16 01:59:29;;;;;;;4.80;2.40;;;;;;;11.46;54.78;100810.59;106214;1270;22649;-75
2022/05/16 02:01:55;;;;;;;7.80;2.40;;;;;;;11.43;54.92;100811.30;106428;1268;22589;-78
2022/05/16 02:04:22;;;;;;;4.50;3.20;;;;;;;11.41;54.87;100814.50;106322;1272;22788;-78
2022/05/16 02:06:48;;;;;;;4.90;3.00;;;;;;;11.39;54.97;100816.80;106325;1271;22776;-77
2022/05/16 02:09:15;;;;;;;5.30;2.40;;;;;;;11.33;54.97;100817.19;106345;1270;22699;-82
2022/05/16 02:11:41;;;;;;;5.20;2.50;;;;;;;11.26;55.12;100819.68;106233;1271;22886;-75
2022/05/16 02:14:09;;;;;;;2.60;2.20;;;;;;;11.21;55.36;100816.89;106420;1270;22531;-74
2022/05/16 02:16:35;;;;;;;5.90;2.60;;;;;;;11.24;55.34;100822.00;106292;1271;24283;-76
2022/05/16 02:26:13;;;;;;;5.40;2.60;;;;;;;11.34;55.63;100825.47;106286;1270;25482;-76
2022/05/16 02:28:40;;;;;;;5.10;2.70;;;;;;;11.37;55.60;100825.98;106079;1270;25257;-76
2022/05/16 02:31:06;;;;;;;7.60;3.10;;;;;;;11.38;55.67;100827.21;105673;1277;26516;-78
2022/05/16 02:33:32;;;;;;;4.60;2.50;;;;;;;11.38;55.79;100829.48;106087;1277;25589;-74
2022/05/16 02:36:24;;;;;;;6.40;2.90;;;;;;;11.37;55.82;100833.02;105552;1282;23103;-75
2022/05/16 02:38:52;;;;;;;3.90;2.60;;;;;;;11.35;55.95;100831.09;105422;1281;24840;-76
2022/05/16 02:41:18;;;;;;;5.70;3.20;;;;;;;11.36;56.01;100834.09;105299;1281;24568;-79
2022/05/16 02:43:46;;;;;;;6.10;2.70;;;;;;;11.41;56.06;100834.79;105603;1281;24811;-79
2022/05/16 02:46:12;;;;;;;6.50;2.80;;;;;;;11.41;56.15;100843.23;105615;1285;22505;-77
2022/05/16 02:49:30;;;;;;;4.20;2.50;;;;;;;11.39;56.23;100836.55;105050;1282;24240;-78
2022/05/16 02:51:56;;;;;;;6.30;2.50;;;;;;;11.42;56.35;100840.76;105183;1281;24200;-76
2022/05/16 02:54:23;;;;;;;3.40;2.40;;;;;;;11.41;56.37;100839.54;105521;1276;22637;-78
2022/05/16 02:56:50;;;;;;;7.20;2.50;;;;;;;11.40;56.54;100839.89;105591;1281;22719;-77
2022/05/16 03:03:28;;;;;;;4.90;2.70;;;;;;;11.39;56.70;100839.19;105443;1283;24230;-75
2022/05/16 03:05:55;;;;;;;5.40;2.70;;;;;;;11.38;56.64;100835.48;105171;1285;22588;-84
2022/05/16 03:09:21;;;;;;;6.80;3.50;;;;;;;11.32;56.56;100836.41;105325;1285;24101;-83
2022/05/16 03:12:41;;;;;;;4.90;3.00;;;;;;;11.24;56.82;100834.51;105456;1285;22591;-83
2022/05/16 03:15:08;;;;;;;6.00;2.80;;;;;;;11.24;56.90;100834.34;104892;1285;22532;-76
2022/05/16 03:17:34;;;;;;;6.70;3.00;;;;;;;11.23;56.93;100834.33;104962;1285;22821;-76
2022/05/16 03:20:02;;;;;;;5.00;2.90;;;;;;;11.27;56.92;100837.14;105072;1285;23977;-75
2022/05/16 03:22:31;;;;;;;5.30;2.40;;;;;;;11.29;56.86;100837.65;105126;1285;23988;-75
2022/05/16 03:24:59;;;;;;;5.00;2.30;;;;;;;11.30;56.77;100838.71;105691;1274;22541;-80
2022/05/16 03:27:26;;;;;;;6.20;2.50;;;;;;;11.31;56.84;100836.23;105724;1277;23201;-78
2022/05/16 03:29:52;;;;;;;4.50;2.60;;;;;;;11.31;56.75;100838.88;106020;1277;22538;-78
2022/05/16 03:32:19;;;;;;;6.30;2.50;;;;;;;11.30;56.77;100839.93;106206;1274;22540;-82
2022/05/16 03:34:50;;;;;;;4.60;2.70;;;;;;;11.26;56.76;100838.91;106233;1270;22587;-83
2022/05/16 03:37:17;;;;;;;4.80;2.30;;;;;;;11.24;56.79;100839.61;105999;1277;22587;-81
2022/05/16 03:42:31;;;;;;;4.10;2.00;;;;;;;11.23;56.75;100837.68;106137;1276;22657;-78
2022/05/16 03:44:59;;;;;;;3.10;2.00;;;;;;;11.17;56.53;100841.23;106554;1274;22574;-80
2022/05/16 03:47:26;;;;;;;5.50;2.50;;;;;;;11.07;56.63;100842.68;106355;1276;23941;-74
2022/05/16 03:49:53;;;;;;;4.40;1.90;;;;;;;11.06;56.88;100842.52;106417;1274;24257;-77
2022/05/16 03:52:20;;;;;;;3.30;2.30;;;;;;;11.01;56.85;100844.12;106437;1275;22550;-75
2022/05/16 03:54:47;;;;;;;4.60;2.10;;;;;;;11.03;57.04;100842.36;106293;1271;24053;-76
2022/05/16 03:57:13;;;;;;;5.00;2.20;;;;;;;11.09;56.91;100849.55;106443;1270;23925;-78
2022/05/16 03:59:40;;;;;;;2.90;2.10;;;;;;;11.05;56.96;100852.20;105780;1277;22580;-84
2022/05/16 04:02:08;;;;;;;4.20;2.10;;;;;;;11.06;57.06;100851.15;105551;1279;22627;-80
2022/05/16 04:04:34;;;;;;;7.20;2.70;;;;;;;11.14;57.13;100855.52;105820;1279;22580;-79
2022/05/16 04:07:01;;;;;;;4.60;2.20;;;;;;;11.14;57.05;100857.12;106254;1276;24105;-80
2022/05/16 04:09:28;;;;;;;7.60;2.20;;;;;;;11.11;56.97;100860.83;106672;1276;26613;-86
2022/05/16 04:11:55;;;;;;;3.10;2.10;;;;;;;11.07;57.00;100858.55;106124;1281;25541;-78
2022/05/16 04:14:22;;;;;;;5.70;2.00;;;;;;;11.12;57.34;100859.23;105990;1283;25384;-76
2022/05/16 04:16:48;;;;;;;4.60;2.00;;;;;;;11.20;57.18;100861.15;106146;1280;22571;-79
2022/05/16 04:19:15;;;;;;;3.30;2.40;;;;;;;11.21;57.10;100863.42;106292;1275;23943;-76
2022/05/16 04:21:42;;;;;;;5.30;2.70;;;;;;;11.22;56.94;100867.30;106836;1276;23930;-86
2022/05/16 04:24:08;;;;;;;7.20;1.90;;;;;;;11.23;56.92;100864.48;107315;1274;22540;-80
2022/05/16 04:26:36;;;;;;;4.30;2.20;;;;;;;11.18;56.77;100870.85;106684;1276;22591;-79
2022/05/16 04:29:03;;;;;;;6.20;2.20;;;;;;;11.10;56.92;100872.45;106522;1275;22634;-80
2022/05/16 04:31:30;;;;;;;10.10;2.70;;;;;;;11.08;57.04;100869.65;106286;1276;26013;-79
2022/05/16 04:33:57;;;;;;;5.70;2.60;;;;;;;11.08;57.36;100873.54;106013;1275;24398;-81
2022/05/16 04:36:23;;;;;;;5.50;2.30;;;;;;;11.12;57.35;100875.80;106041;1278;22696;-80
2022/05/16 04:38:50;;;;;;;5.20;2.00;;;;;;;11.14;57.35;100875.80;106796;1278;24177;-80
2022/05/16 04:44:10;;;;;;;5.70;2.30;;;;;;;11.14;57.58;100874.40;107209;1277;22561;-83
2022/05/16 04:46:41;;;;;;;4.60;2.80;;;;;;;11.15;57.66;100877.55;106625;1279;23562;-80
2022/05/16 04:49:08;;;;;;;4.20;2.50;;;;;;;11.19;57.82;100877.20;105550;1284;22720;-80
2022/05/16 04:51:34;;;;;;;7.70;3.80;;;;;;;11.14;57.78;100877.74;105193;1284;24430;-78
2022/05/16 04:54:01;;;;;;;5.70;2.50;;;;;;;11.12;57.97;100880.57;105604;1277;25378;-77
2022/05/16 04:56:27;;;;;;;3.30;2.50;;;;;;;11.07;57.98;100879.52;106068;1277;23965;-77
2022/05/16 04:58:54;;;;;;;8.30;2.70;;;;;;;11.06;58.31;100879.70;105667;1276;25380;-77
2022/05/16 05:01:20;;;;;;;3.50;2.60;;;;;;;11.10;58.41;100875.30;105417;1282;22725;-77
2022/05/16 05:03:47;;;;;;;6.80;2.80;;;;;;;11.16;58.46;100876.68;105272;1282;25262;-77
2022/05/16 05:06:13;;;;;;;6.20;2.60;;;;;;;11.21;58.58;100872.95;105328;1282;23026;-73
2022/05/16 05:08:39;;;;;;;6.80;2.80;;;;;;;11.25;58.53;100878.41;105136;1291;22586;-80
2022/05/16 05:16:38;;;;;;;5.60;2.80;;;;;;;11.35;58.44;100877.66;105234;1290;24416;-80
2022/05/16 05:19:05;;;;;;;5.50;2.90;;;;;;;11.28;58.36;100881.21;105239;1282;23984;-79
2022/05/16 05:21:32;;;;;;;5.70;3.10;;;;;;;11.36;58.46;100882.59;105574;1282;22753;-79
2022/05/16 05:24:00;;;;;;;8.10;3.00;;;;;;;11.44;58.21;100885.02;105846;1282;24473;-79
2022/05/16 05:26:27;;;;;;;6.90;2.50;;;;;;;11.42;57.84;100880.63;105410;1282;26511;-80
2022/05/16 05:28:54;;;;;;;8.10;2.90;;;;;;;11.39;57.83;100879.58;105590;1282;22905;-79
2022/05/16 05:31:25;;;;;;;5.90;2.50;;;;;;;11.41;57.78;100881.52;105750;1281;22566;-79
2022/05/16 05:33:55;;;;;;;5.10;2.20;;;;;;;11.44;57.83;100879.56;106579;1281;22627;-91
2022/05/16 05:36:28;;;;;;;6.00;2.40;;;;;;;11.51;57.69;100880.75;108076;1278;22590;-92
2022/05/16 05:38:54;;;;;;;5.80;2.10;;;;;;;11.59;57.48;100880.89;107753;1278;22576;-88
2022/05/16 05:41:23;;;;;;;8.30;2.10;;;;;;;11.66;57.16;100879.26;107919;1277;22696;-92
2022/05/16 05:43:50;;;;;;;4.90;2.60;;;;;;;11.72;56.88;100879.22;107774;1271;25304;-91
2022/05/16 05:46:22;;;;;;;4.50;2.20;;;;;;;11.76;56.61;100882.03;107998;1271;23055;-92
2022/05/16 05:48:49;;;;;;;6.50;2.20;;;;;;;11.84;56.42;100877.21;107943;1271;22786;-91
2022/05/16 05:51:16;;;;;;;7.10;2.30;;;;;;;11.91;56.31;100876.98;107703;1273;25255;-89
2022/05/16 05:53:43;;;;;;;6.50;2.70;;;;;;;11.97;56.15;100884.73;107616;1272;25369;-92
2022/05/16 05:56:12;;;;;;;6.90;2.20;;;;;;;11.99;56.09;100885.40;107803;1270;22812;-91
2022/05/16 05:58:39;;;;;;;6.50;2.40;;;;;;;12.02;55.81;100886.09;108286;1271;23174;-92
2022/05/16 06:01:07;;;;;;;4.60;2.00;;;;;;;12.05;55.56;100885.91;108204;1271;22566;-90
2022/05/16 06:03:35;;;;;;;4.20;2.00;;;;;;;12.11;55.32;100886.75;108352;1271;22569;-90
2022/05/16 06:06:01;;;;;;;6.30;2.40;;;;;;;12.18;55.16;100882.66;108596;1271;25496;-83
2022/05/16 06:08:28;;;;;;;5.00;2.00;;;;;;;12.23;55.28;100877.13;108769;1272;22599;-91
2022/05/16 06:10:54;;;;;;;4.70;2.10;;;;;;;12.29;55.09;100879.91;108753;1270;24078;-91
2022/05/16 06:13:21;;;;;;;7.10;2.60;;;;;;;12.38;54.92;100883.38;108386;1278;25407;-90
2022/05/16 06:15:47;;;;;;;6.50;2.20;;;;;;;12.44;54.69;100877.13;108820;1277;22802;-93
2022/05/16 06:18:14;;;;;;;7.30;2.30;;;;;;;12.48;54.44;100877.10;108971;1277;22630;-92
2022/05/16 06:20:40;;;;;;;3.70;1.90;;;;;;;12.53;54.42;100877.40;108803;1277;22620;-90
2022/05/16 06:23:07;;;;;;;7.30;2.60;;;;;;;12.52;53.95;100876.89;108304;1278;22593;-90
2022/05/16 06:25:36;;;;;;;4.30;2.10;;;;;;;12.54;54.08;100877.05;108137;1278;22651;-92
2022/05/16 06:28:13;;;;;;;4.80;2.50;;;;;;;12.58;54.16;100878.41;108123;1277;22805;-86
2022/05/16 06:30:44;;;;;;;6.70;2.30;;;;;;;12.65;53.99;100878.01;108626;1271;23124;-91
2022/05/16 06:33:11;;;;;;;5.90;2.20;;;;;;;12.67;53.88;100879.21;109335;1271;22551;-89
2022/05/16 06:35:39;;;;;;;6.90;2.30;;;;;;;12.74;53.98;100877.54;109373;1271;22705;-92
2022/05/16 06:38:30;;;;;;;4.50;2.20;;;;;;;12.83;53.86;100876.05;109583;1271;22545;-87
2022/05/16 06:40:58;;;;;;;5.70;2.10;;;;;;;12.93;53.51;100875.05;109322;1270;22994;-92
2022/05/16 06:43:28;;;;;;;4.00;1.50;;;;;;;13.02;53.31;100873.90;109168;1271;25362;-92
2022/05/16 06:45:55;;;;;;;3.80;2.00;;;;;;;13.09;53.27;100877.89;108900;1272;22534;-90
2022/05/16 06:48:21;;;;;;;6.30;1.30;;;;;;;13.17;53.19;100879.20;108234;1271;22529;-90
2022/05/16 06:50:49;;;;;;;5.10;1.80;;;;;;;13.22;52.74;100878.25;108310;1272;22786;-90
2022/05/16 06:53:20;;;;;;;2.90;1.70;;;;;;;13.25;52.30;100878.40;108220;1270;22688;-90
2022/05/16 06:55:48;;;;;;;8.20;1.80;;;;;;;13.30;52.24;100880.98;108023;1272;23088;-91
2022/05/16 06:58:15;;;;;;;6.10;1.50;;;;;;;13.32;52.23;100879.02;107693;1271;22634;-91
2022/05/16 07:00:43;;;;;;;6.70;1.70;;;;;;;13.38;52.17;100879.65;107678;1273;25463;-88
2022/05/16 07:03:11;;;;;;;4.10;1.80;;;;;;;13.44;52.15;100880.11;107491;1273;22556;-88
2022/05/16 07:05:49;;;;;;;;;;;;;;;13.52;51.93;100881.97;107383;1271;24245;-88
2022/05/16 07:08:19;;;;;;;10.60;1.80;;;;;;;13.59;51.70;100884.18;107706;1271;22533;-89
2022/05/16 07:10:48;;;;;;;6.60;1.40;;;;;;;13.68;51.14;100883.36;108692;1271;22586;-89
2022/05/16 07:13:21;;;;;;;4.00;1.60;;;;;;;13.73;50.01;100883.09;109021;1271;22557;-90
2022/05/16 07:15:48;;;;;;;2.10;1.30;;;;;;;13.81;49.53;100886.17;108765;1273;22569;-88
2022/05/16 07:18:14;;;;;;;2.10;0.90;;;;;;;13.88;49.11;100883.95;108773;1271;22531;-90
2022/05/16 07:20:41;;;;;;;4.60;1.10;;;;;;;13.97;48.29;100886.48;108444;1270;22949;-90
2022/05/16 07:23:08;;;;;;;2.70;1.00;;;;;;;14.05;47.91;100888.13;108543;1271;25288;-85
2022/05/16 07:28:35;;;;;;;5.40;1.40;;;;;;;14.26;47.08;100883.71;108290;1273;22634;-89
2022/05/16 07:31:04;;;;;;;4.50;1.00;;;;;;;14.36;46.55;100885.67;108461;1272;22551;-90
2022/05/16 07:33:31;;;;;;;3.60;1.40;;;;;;;14.44;46.21;100887.31;108890;1271;22540;-90
2022/05/16 07:35:59;;;;;;;2.30;1.30;;;;;;;14.54;45.78;100888.02;108749;1272;22552;-91
2022/05/16 07:38:26;;;;;;;3.80;1.30;;;;;;;14.64;45.33;100886.98;108911;1271;24348;-89
2022/05/16 07:40:53;;;;;;;5.00;1.10;;;;;;;14.71;45.09;100889.49;109161;1271;22543;-90
2022/05/16 07:43:26;;;;;;;7.40;1.10;;;;;;;14.80;45.04;100889.54;109432;1272;22631;-87
2022/05/16 07:45:53;;;;;;;5.00;1.10;;;;;;;14.92;45.02;100891.45;109177;1273;22511;-89
2022/05/16 07:48:20;;;;;;;1.40;1.20;;;;;;;15.03;44.62;100892.30;109518;1270;22539;-89
2022/05/16 07:50:48;;;;;;;3.80;1.10;;;;;;;15.15;44.14;100891.36;109488;1271;22620;-89
2022/05/16 07:53:17;;;;;;;1.70;1.30;;;;;;;15.27;43.96;100888.45;109644;1271;22572;-89
2022/05/16 07:55:47;;;;;;;3.00;1.60;;;;;;;15.40;43.54;100892.61;109604;1271;22737;-87
2022/05/16 07:58:14;;;;;;;3.00;1.10;;;;;;;15.52;43.16;100890.59;109584;1271;22954;-87
2022/05/16 08:00:41;;;;;;;2.80;1.10;;;;;;;15.65;42.82;100890.48;109654;1270;22567;-91
2022/05/16 08:03:15;;;;;;;3.50;1.40;;;;;;;15.79;43.11;100893.73;109052;1272;22550;-90
2022/05/16 08:05:42;;;;;;;1.90;1.10;;;;;;;15.93;42.25;100894.46;108503;1276;22542;-90
2022/05/16 08:10:58;;;;;;;3.00;0.90;;;;;;;16.21;40.90;100890.48;106585;1287;24118;-89
2022/05/16 08:13:28;;;;;;;2.00;1.00;;;;;;;16.35;41.05;100889.59;107532;1287;22614;-90
2022/05/16 08:16:01;;;;;;;2.90;0.80;;;;;;;16.49;40.76;100883.02;107390;1287;25544;-90
2022/05/16 08:18:30;;;;;;;3.00;0.90;;;;;;;16.63;40.47;100886.73;107922;1288;22715;-90
2022/05/16 08:20:57;;;;;;;5.20;1.00;;;;;;;16.77;40.19;100881.05;107915;1287;22599;-91
2022/05/16 08:23:29;;;;;;;2.90;0.90;;;;;;;16.88;39.79;100880.92;107729;1283;24123;-89
2022/05/16 08:26:01;;;;;;;1.90;0.90;;;;;;;17.02;39.66;100885.68;108713;1278;24344;-88
2022/05/16 08:28:28;;;;;;;4.30;0.90;;;;;;;17.13;39.31;100879.55;109272;1273;22574;-88
2022/05/16 08:30:55;;;;;;;4.00;1.00;;;;;;;17.23;39.05;100876.06;108973;1272;22525;-88
2022/05/16 08:33:22;;;;;;;2.60;1.20;;;;;;;17.28;38.95;100877.16;107993;1274;22795;-89
2022/05/16 08:39:52;;;;;;;5.70;1.20;;;;;;;17.40;39.15;100881.62;109354;1274;22572;-90
2022/05/16 08:41:29;;;;;;;6.00;1.00;;;;;;;17.73;38.42;100877.94;106879;1274;23474;-89
2022/05/16 08:44:02;;;;;;;2.50;1.20;;;;;;;17.82;37.67;100882.64;107359;1277;22544;-90
2022/05/16 08:46:41;;;;;;;1.80;0.80;;;;;;;17.94;37.14;100883.35;107032;1275;24228;-91
2022/05/16 08:49:42;;;;;;;1.90;0.80;;;;;;;18.00;35.96;100884.56;107663;1280;22588;-90
2022/05/16 08:52:51;;;;;;;2.00;0.90;;;;;;;18.07;35.00;100879.01;107799;1280;22599;-87
2022/05/16 08:55:40;;;;;;;2.10;0.70;;;;;;;18.16;34.80;100873.41;106319;1281;24240;-90
2022/05/16 08:58:25;;;;;;;5.10;0.90;;;;;;;18.24;34.90;100877.23;106295;1280;25532;-89
2022/05/16 09:01:02;;;;;;;1.30;0.90;;;;;;;18.32;34.24;100872.52;105441;1285;25384;-88
2022/05/16 09:03:53;;;;;;;1.00;0.60;;;;;;;18.39;33.58;100874.95;105114;1286;22742;-89
2022/05/16 09:06:33;;;;;;;0.60;0.60;;;;;;;18.51;32.82;100875.06;104572;1294;25985;-87
2022/05/16 09:09:22;;;;;;;2.10;1.00;;;;;;;18.64;32.11;100878.75;104540;1294;25674;-90
2022/05/16 09:12:15;;;;;;;0.60;0.60;;;;;;;18.78;31.61;100882.54;105053;1292;24338;-89
2022/05/16 09:15:01;;;;;;;0.60;0.50;;;;;;;18.92;31.50;100875.79;104401;1294;23038;-90
2022/05/16 09:17:34;;;;;;;0.70;0.40;;;;;;;19.11;31.19;100878.89;104973;1294;24215;-90
2022/05/16 09:20:42;;;;;;;0.90;0.50;;;;;;;19.25;30.51;100874.45;105229;1285;22578;-89
2022/05/16 09:23:11;;;;;;;0.90;0.60;;;;;;;19.32;29.87;100870.25;104723;1294;22620;-91
2022/05/16 09:25:53;;;;;;;2.30;0.80;;;;;;;19.35;29.93;100868.72;105367;1287;22775;-90
2022/05/16 09:28:37;;;;;;;3.50;1.40;;;;;;;19.45;30.31;100866.71;105756;1284;22759;-89
2022/05/16 09:31:09;;;;;;;1.10;0.70;;;;;;;19.66;30.34;100868.77;105786;1284;22557;-91
2022/05/16 09:33:43;;;;;;;10.60;0.80;;;;;;;19.84;29.93;100871.30;106257;1279;24293;-91
2022/05/16 09:36:12;;;;;;;0.80;0.50;;;;;;;19.99;29.27;100873.17;107067;1278;26665;-90
2022/05/16 09:38:44;;;;;;;1.70;0.50;;;;;;;20.09;28.67;100874.98;107085;1279;23846;-92
2022/05/16 09:41:23;;;;;;;1.70;0.60;;;;;;;19.98;28.07;100878.77;106621;1279;22558;-91
2022/05/16 09:44:05;;;;;;;1.60;0.50;;;;;;;19.99;28.22;100879.25;106120;1281;22534;-91
2022/05/16 09:46:37;;;;;;;1.00;0.50;;;;;;;20.14;28.36;100873.14;106442;1279;23886;-91
2022/05/16 09:49:27;;;;;;;1.20;0.70;;;;;;;20.26;28.25;100871.91;106600;1278;22488;-90
2022/05/16 09:51:57;;;;;;;4.30;0.90;;;;;;;20.46;27.99;100875.01;107187;1278;23941;-88
2022/05/16 09:54:45;;;;;;;1.40;0.90;;;;;;;20.64;27.94;100875.87;106503;1279;22555;-89
2022/05/16 09:57:21;;;;;;;1.30;0.50;;;;;;;20.82;28.06;100875.27;105621;1285;22691;-87
2022/05/16 09:59:52;;;;;;;1.10;0.50;;;;;;;21.05;28.12;100876.44;105850;1279;22578;-90
2022/05/16 10:02:31;;;;;;;1.80;0.80;;;;;;;21.27;27.92;100874.55;106932;1278;25236;-90
2022/05/16 10:05:01;;;;;;;0.90;0.80;;;;;;;21.43;27.79;100868.07;106435;1281;22532;-90
2022/05/16 10:07:48;;;;;;;0.90;0.70;;;;;;;21.51;27.08;100862.29;106188;1279;25548;-92
2022/05/16 10:10:21;;;;;;;2.60;0.70;;;;;;;21.55;27.13;100861.76;105680;1286;25396;-91
2022/05/16 10:12:51;;;;;;;0.40;0.40;;;;;;;21.66;27.35;100864.84;106034;1285;22575;-89
2022/05/16 10:15:18;;;;;;;0.90;0.60;;;;;;;21.70;26.83;100867.85;106183;1284;26645;-90
2022/05/16 10:17:47;;;;;;;2.40;0.60;;;;;;;21.74;26.91;100865.68;106097;1284;22632;-89
2022/05/16 10:20:20;;;;;;;1.00;0.60;;;;;;;21.86;26.65;100866.77;106146;1282;24351;-90
2022/05/16 10:22:57;;;;;;;2.10;0.80;;;;;;;21.89;26.39;100862.33;105974;1288;22728;-89
2022/05/16 10:25:45;;;;;;;2.40;0.90;;;;;;;22.03;26.40;100861.98;107058;1288;22586;-89
2022/05/16 10:28:19;;;;;;;3.80;1.00;;;;;;;22.29;26.65;100865.72;107012;1285;25251;-89
2022/05/16 10:33:35;;;;;;;1.80;1.00;;;;;;;22.65;25.59;100865.88;108006;1284;22638;-90
2022/05/16 10:36:27;;;;;;;1.10;1.00;;;;;;;22.84;25.54;100861.50;108525;1277;25213;-88
2022/05/16 10:39:06;;;;;;;3.20;0.90;;;;;;;23.02;25.22;100851.38;108589;1276;22645;-90
2022/05/16 10:41:57;;;;;;;0.50;0.40;;;;;;;23.14;24.41;100848.23;108312;1277;25210;-89
2022/05/16 10:44:59;;;;;;;1.80;0.60;;;;;;;23.18;24.07;100848.34;108234;1277;22684;-85
2022/05/16 10:47:31;;;;;;;2.50;0.70;;;;;;;23.33;24.29;100850.27;108697;1272;22551;-87
2022/05/16 10:50:07;;;;;;;2.90;0.90;;;;;;;23.43;24.09;100848.06;108945;1270;23924;-88
2022/05/16 10:53:03;;;;;;;3.40;0.80;;;;;;;23.58;23.87;100840.41;108248;1271;24195;-89
2022/05/16 10:55:58;;;;;;;1.30;0.60;;;;;;;23.76;23.35;100846.08;108620;1271;300064;-89
2022/05/16 10:58:53;;;;;;;1.40;0.50;;;;;;;23.84;23.25;100847.75;108015;1271;22548;-83
2022/05/16 11:01:36;;;;;;;0.70;0.30;;;;;;;24.01;23.13;100847.52;108045;1272;22729;-89
2022/05/16 11:04:23;;;;;;;2.00;0.40;;;;;;;24.22;23.30;100841.48;108144;1271;23717;-89
2022/05/16 11:07:02;;;;;;;1.50;0.80;;;;;;;24.35;22.71;100836.20;108344;1271;22619;-89
2022/05/16 11:09:50;;;;;;;1.20;0.60;;;;;;;24.52;22.85;100836.45;107814;1272;22560;-89
2022/05/16 11:12:25;;;;;;;2.80;0.50;;;;;;;24.62;22.09;100830.29;108687;1271;22730;-92
2022/05/16 11:15:07;;;;;;;0.50;0.40;;;;;;;24.69;21.92;100819.91;109330;1271;22549;-88
2022/05/16 11:18:01;;;;;;;3.50;0.50;;;;;;;24.84;22.37;100813.07;109453;1270;22525;-89
2022/05/16 11:20:33;;;;;;;3.60;0.70;;;;;;;24.89;21.24;100811.49;108747;1272;24308;-88
2022/05/16 11:23:10;;;;;;;1.50;0.70;;;;;;;24.73;21.55;100809.23;108150;1271;23888;-90
2022/05/16 11:25:43;;;;;;;3.10;0.50;;;;;;;24.74;21.22;100805.58;108909;1271;22587;-89
2022/05/16 11:28:24;;;;;;;0.50;0.50;;;;;;;24.75;20.82;100806.56;108119;1270;22468;-89
2022/05/16 11:30:59;;;;;;;0.60;0.50;;;;;;;24.57;20.70;100802.85;107484;1271;24082;-89
2022/05/16 11:33:53;;;;;;;0.90;0.40;;;;;;;24.41;21.12;100803.81;107493;1277;24231;-91
2022/05/16 11:36:33;;;;;;;4.00;0.90;;;;;;;24.32;20.91;100805.61;107731;1277;25408;-90
2022/05/16 11:43:11;;;;;;;3.10;0.50;;;;;;;24.81;21.06;100788.18;108127;1287;22744;-88
2022/05/16 11:46:09;;;;;;;4.30;0.60;;;;;;;25.09;20.95;100792.08;106933;1291;25402;-87
2022/05/16 11:48:49;;;;;;;3.70;0.90;;;;;;;25.32;20.73;100785.20;107162;1291;22721;-89
2022/05/16 11:51:57;;;;;;;0.50;0.50;;;;;;;25.55;20.74;100781.91;107730;1291;22703;-87
2022/05/16 11:54:32;;;;;;;1.10;0.60;;;;;;;25.76;20.66;100777.85;106793;1297;22610;-88
2022/05/16 12:03:13;;;;;;;1.50;0.50;;;;;;;26.23;20.02;100777.04;106450;1294;22568;-89
2022/05/16 12:06:12;;;;;;;1.90;0.30;;;;;;;26.39;19.55;100778.09;106911;1294;22656;-89
2022/05/16 12:08:46;;;;;;;2.10;0.70;;;;;;;26.55;19.90;100771.95;105976;1300;22613;-89
2022/05/16 12:11:27;;;;;;;0.70;0.50;;;;;;;26.64;19.56;100769.18;106624;1299;24424;-88
2022/05/16 12:14:21;;;;;;;1.20;0.60;;;;;;;26.77;19.76;100768.94;107055;1299;25440;-87
2022/05/16 12:16:50;;;;;;;1.10;0.40;;;;;;;26.91;19.45;100772.11;106971;1297;22696;-90
2022/05/16 12:19:33;;;;;;;0.60;0.50;;;;;;;27.07;19.32;100769.89;107594;1283;22587;-88
2022/05/16 12:22:25;;;;;;;1.20;0.40;;;;;;;27.23;18.79;100762.99;108486;1276;22611;-88
2022/05/16 12:25:45;;;;;;;1.70;0.60;;;;;;;27.31;18.94;100763.33;108787;1281;22600;-89
2022/05/16 12:28:30;;;;;;;1.10;0.90;;;;;;;27.39;18.63;100757.66;107161;1294;22821;-89
2022/05/16 12:31:00;;;;;;;1.10;0.50;;;;;;;27.41;18.68;100754.06;106902;1297;22618;-90
2022/05/16 12:33:41;;;;;;;1.60;0.70;;;;;;;27.45;18.59;100748.91;106329;1297;22697;-89
2022/05/16 12:36:23;;;;;;;2.40;0.60;;;;;;;27.50;18.60;100749.61;106593;1297;25685;-88
2022/05/16 12:39:00;;;;;;;1.10;0.60;;;;;;;27.61;18.31;100751.65;106732;1297;22273;-88
2022/05/16 12:42:07;;;;;;;1.00;0.40;;;;;;;27.58;18.23;100747.76;106385;1297;22618;-88
2022/05/16 12:44:47;;;;;;;0.70;0.60;;;;;;;27.55;18.16;100744.89;106017;1302;22727;-84
2022/05/16 12:47:56;;;;;;;1.00;0.60;;;;;;;27.56;18.08;100743.55;105684;1303;23158;-87